Private Wetterstation Sandau
Wetterdaten: Dienstag, 05.03.2013
Datum Zeit Temp. A. Feuchte A. Luftdruck Regen Wind Richtung Richtung Taupunkt Windchill
05.03.2013 00:01 0,9 C 77 % 1019,7 hPa 0,0 l/m 6,8 km/h (2 Bft) SO 135 -2,7 C -1,3 C
05.03.2013 00:06 0,9 C 78 % 1019,3 hPa 0,0 l/m 3,2 km/h (1 Bft) O-SO 112 -2,5 C 0,9 C
05.03.2013 00:11 0,8 C 78 % 1019,3 hPa 0,0 l/m 2,9 km/h (1 Bft) SO 135 -2,6 C 0,8 C
05.03.2013 00:16 0,7 C 78 % 1019,3 hPa 0,0 l/m 2,9 km/h (1 Bft) O-SO 112 -2,7 C 0,7 C
05.03.2013 00:21 0,6 C 79 % 1019,2 hPa 0,0 l/m 4,0 km/h (1 Bft) O-SO 112 -2,6 C 0,6 C
05.03.2013 00:26 0,6 C 79 % 1019,4 hPa 0,0 l/m 4,0 km/h (1 Bft) SO 135 -2,6 C 0,6 C
05.03.2013 00:31 0,5 C 79 % 1019,3 hPa 0,0 l/m 2,2 km/h (1 Bft) SO 135 -2,7 C 0,5 C
05.03.2013 00:36 0,4 C 79 % 1019,3 hPa 0,0 l/m 5,4 km/h (1 Bft) O-NO 67 -2,8 C -1,3 C
05.03.2013 00:41 0,4 C 79 % 1019,3 hPa 0,0 l/m 4,0 km/h (1 Bft) O-NO 67 -2,8 C 0,4 C
05.03.2013 00:46 0,4 C 79 % 1019,3 hPa 0,0 l/m 2,9 km/h (1 Bft) O-SO 112 -2,8 C 0,4 C
05.03.2013 00:51 0,3 C 79 % 1019,4 hPa 0,0 l/m 4,3 km/h (1 Bft) O 90 -2,9 C 0,3 C
05.03.2013 00:56 0,3 C 79 % 1019,2 hPa 0,0 l/m 0,0 km/h (0 Bft) O-SO 112 -2,9 C 0,3 C
05.03.2013 01:01 0,2 C 80 % 1019,2 hPa 0,0 l/m 2,9 km/h (1 Bft) O 90 -2,8 C 0,2 C
05.03.2013 01:06 0,1 C 80 % 1019,2 hPa 0,0 l/m 3,2 km/h (1 Bft) O-SO 112 -2,9 C 0,1 C
05.03.2013 01:11 0,1 C 80 % 1019,1 hPa 0,0 l/m 4,3 km/h (1 Bft) S-SO 157 -2,9 C 0,1 C
05.03.2013 01:16 0,1 C 80 % 1019,1 hPa 0,0 l/m 3,2 km/h (1 Bft) SO 135 -2,9 C 0,1 C
05.03.2013 01:21 0,1 C 81 % 1019,0 hPa 0,0 l/m 7,2 km/h (2 Bft) O-SO 112 -2,8 C -2,4 C
05.03.2013 01:26 0,1 C 81 % 1019,0 hPa 0,0 l/m 3,6 km/h (1 Bft) SO 135 -2,8 C 0,1 C
05.03.2013 01:31 0,1 C 81 % 1018,9 hPa 0,0 l/m 6,1 km/h (2 Bft) O-SO 112 -2,8 C -1,9 C
05.03.2013 01:36 0,0 C 82 % 1018,9 hPa 0,0 l/m 4,3 km/h (1 Bft) O-SO 112 -2,7 C 0,0 C
05.03.2013 01:41 0,1 C 82 % 1018,8 hPa 0,0 l/m 0,0 km/h (0 Bft) SO 135 -2,6 C 0,1 C
05.03.2013 01:46 0,1 C 82 % 1018,8 hPa 0,0 l/m 3,6 km/h (1 Bft) SO 135 -2,6 C 0,1 C
05.03.2013 01:51 0,0 C 82 % 1018,6 hPa 0,0 l/m 2,5 km/h (1 Bft) SO 135 -2,7 C 0,0 C
05.03.2013 01:56 0,0 C 82 % 1018,6 hPa 0,0 l/m 1,4 km/h (1 Bft) SO 135 -2,7 C 0,0 C
05.03.2013 02:01 -0,1 C 81 % 1018,6 hPa 0,0 l/m 5,0 km/h (1 Bft) O 90 -3,0 C -1,7 C
05.03.2013 02:06 -0,1 C 81 % 1018,6 hPa 0,0 l/m 4,0 km/h (1 Bft) SO 135 -3,0 C -0,1 C
05.03.2013 02:11 -0,1 C 81 % 1018,5 hPa 0,0 l/m 0,0 km/h (0 Bft) SO 135 -3,0 C -0,1 C
05.03.2013 02:16 -0,1 C 81 % 1018,5 hPa 0,0 l/m 2,5 km/h (1 Bft) O-SO 112 -3,0 C -0,1 C
05.03.2013 02:21 -0,2 C 81 % 1018,5 hPa 0,0 l/m 1,8 km/h (1 Bft) SO 135 -3,1 C -0,2 C
05.03.2013 02:26 -0,2 C 82 % 1018,5 hPa 0,0 l/m 2,9 km/h (1 Bft) O-SO 112 -2,9 C -0,2 C
05.03.2013 02:31 -0,4 C 82 % 1018,6 hPa 0,0 l/m 3,2 km/h (1 Bft) O-SO 112 -3,1 C -0,4 C
05.03.2013 02:36 -0,5 C 82 % 1018,5 hPa 0,0 l/m 0,0 km/h (0 Bft) O-SO 112 -3,2 C -0,5 C
05.03.2013 02:41 -0,5 C 82 % 1018,2 hPa 0,0 l/m 3,2 km/h (1 Bft) O-SO 112 -3,2 C -0,5 C
05.03.2013 02:46 -0,6 C 83 % 1018,2 hPa 0,0 l/m 4,0 km/h (1 Bft) O-SO 112 -3,1 C -0,6 C
05.03.2013 02:51 -0,6 C 83 % 1018,2 hPa 0,0 l/m 3,6 km/h (1 Bft) O 90 -3,1 C -0,6 C
05.03.2013 02:56 -0,6 C 83 % 1018,0 hPa 0,0 l/m 4,0 km/h (1 Bft) SO 135 -3,1 C -0,6 C
05.03.2013 03:01 -0,5 C 83 % 1018,1 hPa 0,0 l/m 4,0 km/h (1 Bft) SO 135 -3,0 C -0,5 C
05.03.2013 03:06 -0,6 C 83 % 1018,0 hPa 0,0 l/m 4,0 km/h (1 Bft) SO 135 -3,1 C -0,6 C
05.03.2013 03:11 -0,6 C 83 % 1017,8 hPa 0,0 l/m 3,2 km/h (1 Bft) SO 135 -3,1 C -0,6 C
05.03.2013 03:16 -0,7 C 83 % 1017,9 hPa 0,0 l/m 0,0 km/h (0 Bft) SO 135 -3,2 C -0,7 C
05.03.2013 03:21 -0,7 C 83 % 1017,9 hPa 0,0 l/m 3,6 km/h (1 Bft) SO 135 -3,2 C -0,7 C
05.03.2013 03:26 -0,7 C 83 % 1017,9 hPa 0,0 l/m 5,0 km/h (1 Bft) SO 135 -3,2 C -2,4 C
05.03.2013 03:31 -0,7 C 83 % 1017,9 hPa 0,0 l/m 3,2 km/h (1 Bft) SO 135 -3,2 C -0,7 C
05.03.2013 03:36 -0,8 C 83 % 1017,9 hPa 0,0 l/m 0,0 km/h (0 Bft) SO 135 -3,3 C -0,8 C
05.03.2013 03:41 -0,8 C 83 % 1017,9 hPa 0,0 l/m 4,7 km/h (1 Bft) SO 135 -3,3 C -2,3 C
05.03.2013 03:46 -0,8 C 83 % 1017,6 hPa 0,0 l/m 4,0 km/h (1 Bft) O 90 -3,3 C -0,8 C
05.03.2013 03:51 -0,9 C 83 % 1017,6 hPa 0,0 l/m 4,3 km/h (1 Bft) O-SO 112 -3,4 C -0,9 C
05.03.2013 03:56 -0,9 C 83 % 1017,7 hPa 0,0 l/m 2,9 km/h (1 Bft) SO 135 -3,4 C -0,9 C
05.03.2013 04:01 -0,9 C 83 % 1017,7 hPa 0,0 l/m 4,0 km/h (1 Bft) O-SO 112 -3,4 C -0,9 C
05.03.2013 04:06 -0,9 C 83 % 1017,6 hPa 0,0 l/m 5,4 km/h (1 Bft) O-SO 112 -3,4 C -2,8 C
05.03.2013 04:11 -1,0 C 84 % 1017,5 hPa 0,0 l/m 4,0 km/h (1 Bft) O-SO 112 -3,4 C -1,0 C
05.03.2013 04:16 -1,0 C 84 % 1017,5 hPa 0,0 l/m 2,9 km/h (1 Bft) O 90 -3,4 C -1,0 C
05.03.2013 04:21 -1,1 C 84 % 1017,6 hPa 0,0 l/m 4,7 km/h (1 Bft) O-SO 112 -3,4 C -2,7 C
05.03.2013 04:26 -1,1 C 84 % 1017,4 hPa 0,0 l/m 6,1 km/h (2 Bft) O-SO 112 -3,4 C -3,3 C
05.03.2013 04:31 -1,1 C 84 % 1017,2 hPa 0,0 l/m 2,5 km/h (1 Bft) O 90 -3,4 C -1,1 C
05.03.2013 04:36 -1,1 C 85 % 1017,2 hPa 0,0 l/m 2,5 km/h (1 Bft) O-SO 112 -3,3 C -1,1 C
05.03.2013 04:41 -1,1 C 85 % 1017,2 hPa 0,0 l/m 3,2 km/h (1 Bft) O-SO 112 -3,3 C -1,1 C
05.03.2013 04:46 -1,1 C 85 % 1017,2 hPa 0,0 l/m 4,7 km/h (1 Bft) O 90 -3,3 C -2,7 C
05.03.2013 04:51 -1,2 C 85 % 1017,2 hPa 0,0 l/m 5,0 km/h (1 Bft) SO 135 -3,4 C -3,0 C
05.03.2013 04:56 -1,2 C 85 % 1017,3 hPa 0,0 l/m 4,7 km/h (1 Bft) O-SO 112 -3,4 C -2,8 C
05.03.2013 05:01 -1,2 C 85 % 1017,1 hPa 0,0 l/m 2,2 km/h (1 Bft) O-SO 112 -3,4 C -1,2 C
05.03.2013 05:06 -1,3 C 85 % 1017,2 hPa 0,0 l/m 2,5 km/h (1 Bft) SO 135 -3,5 C -1,3 C
05.03.2013 05:11 -1,3 C 85 % 1017,1 hPa 0,0 l/m 4,7 km/h (1 Bft) S-SO 157 -3,5 C -2,9 C
05.03.2013 05:16 -1,3 C 85 % 1017,0 hPa 0,0 l/m 3,2 km/h (1 Bft) S-SO 157 -3,5 C -1,3 C
05.03.2013 05:21 -1,3 C 85 % 1016,8 hPa 0,0 l/m 4,0 km/h (1 Bft) SO 135 -3,5 C -1,3 C
05.03.2013 05:26 -1,4 C 86 % 1016,8 hPa 0,0 l/m 5,0 km/h (1 Bft) SO 135 -3,4 C -3,2 C
05.03.2013 05:31 -1,4 C 86 % 1016,7 hPa 0,0 l/m 6,1 km/h (2 Bft) O-SO 112 -3,4 C -3,7 C
05.03.2013 05:36 -1,3 C 86 % 1016,8 hPa 0,0 l/m 4,7 km/h (1 Bft) SO 135 -3,3 C -2,9 C
05.03.2013 05:41 -1,3 C 86 % 1016,7 hPa 0,0 l/m 8,3 km/h (2 Bft) O-SO 112 -3,3 C -4,4 C
05.03.2013 05:46 -1,3 C 86 % 1016,6 hPa 0,0 l/m 11,9 km/h (2 Bft) O-SO 112 -3,3 C -5,4 C
05.03.2013 05:51 -1,2 C 86 % 1016,5 hPa 0,0 l/m 7,2 km/h (2 Bft) O-SO 112 -3,2 C -3,9 C
05.03.2013 05:56 -1,2 C 86 % 1016,7 hPa 0,0 l/m 4,3 km/h (1 Bft) SO 135 -3,2 C -1,2 C
05.03.2013 06:01 -1,2 C 86 % 1016,5 hPa 0,0 l/m 8,3 km/h (2 Bft) O-SO 112 -3,2 C -4,2 C
05.03.2013 06:06 -1,2 C 86 % 1016,4 hPa 0,0 l/m 6,8 km/h (2 Bft) O-SO 112 -3,2 C -3,7 C
05.03.2013 06:11 -1,3 C 86 % 1016,3 hPa 0,0 l/m 5,4 km/h (1 Bft) SO 135 -3,3 C -3,3 C
05.03.2013 06:16 -1,3 C 86 % 1016,3 hPa 0,0 l/m 7,6 km/h (2 Bft) O-NO 67 -3,3 C -4,1 C
05.03.2013 06:21 -1,3 C 86 % 1016,3 hPa 0,0 l/m 4,3 km/h (1 Bft) O-SO 112 -3,3 C -1,3 C
05.03.2013 06:26 -1,3 C 86 % 1016,4 hPa 0,0 l/m 8,3 km/h (2 Bft) S-SO 157 -3,3 C -4,4 C
05.03.2013 06:31 -1,3 C 86 % 1016,3 hPa 0,0 l/m 8,3 km/h (2 Bft) O 90 -3,3 C -4,4 C
05.03.2013 06:36 -1,2 C 86 % 1016,4 hPa 0,0 l/m 5,4 km/h (1 Bft) SO 135 -3,2 C -3,1 C
05.03.2013 06:41 -1,2 C 86 % 1016,2 hPa 0,0 l/m 7,6 km/h (2 Bft) SO 135 -3,2 C -4,0 C
05.03.2013 06:46 -1,3 C 86 % 1016,2 hPa 0,0 l/m 9,7 km/h (2 Bft) O-SO 112 -3,3 C -4,8 C
05.03.2013 06:51 -1,3 C 86 % 1016,1 hPa 0,0 l/m 2,9 km/h (1 Bft) SO 135 -3,3 C -1,3 C
05.03.2013 06:56 -1,4 C 86 % 1015,9 hPa 0,0 l/m 8,3 km/h (2 Bft) SO 135 -3,4 C -4,5 C
05.03.2013 07:01 -1,4 C 86 % 1016,0 hPa 0,0 l/m 9,4 km/h (2 Bft) SO 135 -3,4 C -4,8 C
05.03.2013 07:06 -1,4 C 86 % 1015,9 hPa 0,0 l/m 6,5 km/h (2 Bft) S-SO 157 -3,4 C -3,8 C
05.03.2013 07:11 -1,4 C 86 % 1015,7 hPa 0,0 l/m 5,0 km/h (1 Bft) SO 135 -3,4 C -3,2 C
05.03.2013 07:16 -1,4 C 86 % 1015,8 hPa 0,0 l/m 7,6 km/h (2 Bft) S-SO 157 -3,4 C -4,2 C
05.03.2013 07:21 -1,4 C 86 % 1015,7 hPa 0,0 l/m 10,1 km/h (2 Bft) S-SO 157 -3,4 C -5,0 C
05.03.2013 07:26 -1,4 C 86 % 1015,9 hPa 0,0 l/m 9,7 km/h (2 Bft) SO 135 -3,4 C -4,9 C
05.03.2013 07:31 -1,3 C 86 % 1015,8 hPa 0,0 l/m 6,5 km/h (2 Bft) SO 135 -3,3 C -3,7 C
05.03.2013 07:36 -1,2 C 86 % 1015,8 hPa 0,0 l/m 5,8 km/h (2 Bft) O-SO 112 -3,2 C -3,3 C
05.03.2013 07:41 -1,2 C 86 % 1016,0 hPa 0,0 l/m 3,2 km/h (1 Bft) SO 135 -3,2 C -1,2 C
05.03.2013 07:46 -1,1 C 86 % 1015,9 hPa 0,0 l/m 1,8 km/h (1 Bft) SO 135 -3,1 C -1,1 C
05.03.2013 07:51 -1,1 C 86 % 1015,9 hPa 0,0 l/m 0,0 km/h (0 Bft) SO 135 -3,1 C -1,1 C
05.03.2013 07:56 -0,9 C 86 % 1015,8 hPa 0,0 l/m 3,6 km/h (1 Bft) SO 135 -2,9 C -0,9 C
05.03.2013 08:01 -0,7 C 86 % 1015,8 hPa 0,0 l/m 5,0 km/h (1 Bft) S-SO 157 -2,7 C -2,4 C
05.03.2013 08:06 -0,6 C 86 % 1015,8 hPa 0,0 l/m 9,7 km/h (2 Bft) SO 135 -2,6 C -3,9 C
05.03.2013 08:11 -0,4 C 86 % 1015,8 hPa 0,0 l/m 10,1 km/h (2 Bft) SO 135 -2,4 C -3,8 C
05.03.2013 08:16 -0,2 C 85 % 1015,8 hPa 0,0 l/m 6,1 km/h (2 Bft) S-SO 157 -2,4 C -2,3 C
05.03.2013 08:21 -0,1 C 85 % 1015,8 hPa 0,0 l/m 5,0 km/h (1 Bft) S-SO 157 -2,3 C -1,7 C
05.03.2013 08:26 0,1 C 85 % 1015,7 hPa 0,0 l/m 4,0 km/h (1 Bft) O-SO 112 -2,1 C 0,1 C
05.03.2013 08:31 0,3 C 84 % 1015,7 hPa 0,0 l/m 4,0 km/h (1 Bft) O-SO 112 -2,1 C 0,3 C
05.03.2013 08:36 0,5 C 84 % 1015,7 hPa 0,0 l/m 0,0 km/h (0 Bft) S-SO 157 -1,9 C 0,5 C
05.03.2013 08:41 0,7 C 84 % 1015,6 hPa 0,0 l/m 5,4 km/h (1 Bft) SO 135 -1,7 C -1,0 C
05.03.2013 08:46 0,9 C 83 % 1015,8 hPa 0,0 l/m 5,8 km/h (2 Bft) S-SO 157 -1,7 C -0,9 C
05.03.2013 08:51 1,1 C 83 % 1015,6 hPa 0,0 l/m 6,1 km/h (2 Bft) S-SO 157 -1,5 C -0,8 C
05.03.2013 08:56 1,3 C 83 % 1015,4 hPa 0,0 l/m 2,9 km/h (1 Bft) O 90 -1,3 C 1,3 C
05.03.2013 09:01 1,3 C 82 % 1015,7 hPa 0,0 l/m 6,5 km/h (2 Bft) S-SO 157 -1,4 C -0,7 C
05.03.2013 09:06 1,6 C 82 % 1015,5 hPa 0,0 l/m 3,2 km/h (1 Bft) SO 135 -1,1 C 1,6 C
05.03.2013 09:11 1,8 C 81 % 1015,4 hPa 0,0 l/m 4,7 km/h (1 Bft) SO 135 -1,1 C 0,6 C
05.03.2013 09:16 1,9 C 81 % 1015,5 hPa 0,0 l/m 3,6 km/h (1 Bft) O-SO 112 -1,0 C 1,9 C
05.03.2013 09:21 2,2 C 80 % 1015,5 hPa 0,0 l/m 5,0 km/h (1 Bft) O-SO 112 -0,9 C 0,9 C
05.03.2013 09:26 2,4 C 80 % 1015,5 hPa 0,0 l/m 4,0 km/h (1 Bft) S-SO 157 -0,7 C 2,4 C
05.03.2013 09:31 2,7 C 80 % 1015,4 hPa 0,0 l/m 1,8 km/h (1 Bft) SO 135 -0,4 C 2,7 C
05.03.2013 09:36 2,9 C 79 % 1015,4 hPa 0,0 l/m 5,0 km/h (1 Bft) SO 135 -0,4 C 1,7 C
05.03.2013 09:41 3,3 C 77 % 1015,1 hPa 0,0 l/m 5,8 km/h (2 Bft) S-SO 157 -0,3 C 1,8 C
05.03.2013 09:46 3,6 C 75 % 1015,3 hPa 0,0 l/m 5,0 km/h (1 Bft) SO 135 -0,4 C 2,5 C
05.03.2013 09:51 3,9 C 74 % 1015,3 hPa 0,0 l/m 4,0 km/h (1 Bft) SO 135 -0,3 C 3,9 C
05.03.2013 09:56 4,1 C 73 % 1015,3 hPa 0,0 l/m 4,0 km/h (1 Bft) SO 135 -0,3 C 4,1 C
05.03.2013 10:01 4,3 C 71 % 1015,1 hPa 0,0 l/m 5,4 km/h (1 Bft) O-SO 112 -0,5 C 3,1 C
05.03.2013 10:06 4,4 C 70 % 1015,1 hPa 0,0 l/m 3,2 km/h (1 Bft) SO 135 -0,6 C 4,4 C
05.03.2013 10:11 4,6 C 71 % 1015,2 hPa 0,0 l/m 4,3 km/h (1 Bft) SO 135 -0,2 C 4,6 C
05.03.2013 10:16 4,6 C 72 % 1015,0 hPa 0,0 l/m 3,2 km/h (1 Bft) O-NO 67 -0,0 C 4,6 C
05.03.2013 10:21 4,7 C 72 % 1015,1 hPa 0,0 l/m 4,0 km/h (1 Bft) SO 135 0,1 C 4,7 C
05.03.2013 10:26 4,8 C 71 % 1015,1 hPa 0,0 l/m 4,7 km/h (1 Bft) SO 135 -0,0 C 4,0 C
05.03.2013 10:31 4,9 C 70 % 1015,0 hPa 0,0 l/m 7,6 km/h (2 Bft) O-SO 112 -0,1 C 3,1 C
05.03.2013 10:36 5,2 C 68 % 1014,9 hPa 0,0 l/m 5,4 km/h (1 Bft) O-SO 112 -0,2 C 4,2 C
05.03.2013 10:41 5,3 C 68 % 1014,8 hPa 0,0 l/m 4,0 km/h (1 Bft) O 90 -0,1 C 5,3 C
05.03.2013 10:46 5,5 C 66 % 1014,9 hPa 0,0 l/m 1,8 km/h (1 Bft) O-SO 112 -0,3 C 5,5 C
05.03.2013 10:51 5,8 C 66 % 1014,8 hPa 0,0 l/m 0,0 km/h (0 Bft) S-SW 202 -0,0 C 5,8 C
05.03.2013 10:56 6,0 C 66 % 1014,6 hPa 0,0 l/m 4,0 km/h (1 Bft) SO 135 0,1 C 6,0 C
05.03.2013 11:01 6,2 C 63 % 1014,5 hPa 0,0 l/m 3,2 km/h (1 Bft) S-SO 157 -0,3 C 6,2 C
05.03.2013 11:06 6,4 C 61 % 1014,5 hPa 0,0 l/m 3,6 km/h (1 Bft) O-SO 112 -0,6 C 6,4 C
05.03.2013 11:11 6,5 C 61 % 1014,5 hPa 0,0 l/m 6,5 km/h (2 Bft) O-SO 112 -0,5 C 5,3 C
05.03.2013 11:16 6,7 C 61 % 1014,5 hPa 0,0 l/m 7,6 km/h (2 Bft) O-SO 112 -0,3 C 5,2 C
05.03.2013 11:21 6,8 C 60 % 1014,7 hPa 0,0 l/m 4,3 km/h (1 Bft) O-SO 112 -0,4 C 6,8 C
05.03.2013 11:26 6,9 C 59 % 1014,5 hPa 0,0 l/m 8,3 km/h (2 Bft) SO 135 -0,5 C 5,3 C
05.03.2013 11:31 7,0 C 57 % 1014,4 hPa 0,0 l/m 6,8 km/h (2 Bft) SO 135 -0,9 C 5,8 C
05.03.2013 11:36 7,2 C 58 % 1014,4 hPa 0,0 l/m 7,2 km/h (2 Bft) O-NO 67 -0,5 C 5,9 C
05.03.2013 11:41 7,3 C 58 % 1014,2 hPa 0,0 l/m 2,2 km/h (1 Bft) SO 135 -0,4 C 7,3 C
05.03.2013 11:46 7,5 C 58 % 1014,3 hPa 0,0 l/m 5,8 km/h (2 Bft) S-SO 157 -0,2 C 6,7 C
05.03.2013 11:51 7,6 C 57 % 1014,2 hPa 0,0 l/m 9,7 km/h (2 Bft) O 90 -0,4 C 5,8 C
05.03.2013 11:56 7,6 C 57 % 1014,1 hPa 0,0 l/m 4,0 km/h (1 Bft) O-SO 112 -0,4 C 7,6 C
05.03.2013 12:01 7,8 C 57 % 1014,0 hPa 0,0 l/m 2,5 km/h (1 Bft) O-NO 67 -0,2 C 7,8 C
05.03.2013 12:06 7,9 C 57 % 1013,9 hPa 0,0 l/m 5,0 km/h (1 Bft) SO 135 -0,1 C 7,4 C
05.03.2013 12:11 7,9 C 56 % 1013,8 hPa 0,0 l/m 9,0 km/h (2 Bft) NO 45 -0,3 C 6,3 C
05.03.2013 12:16 8,1 C 57 % 1013,8 hPa 0,0 l/m 13,3 km/h (3 Bft) SO 135 0,1 C 5,8 C
05.03.2013 12:21 8,3 C 57 % 1013,8 hPa 0,0 l/m 6,5 km/h (2 Bft) S-SO 157 0,3 C 7,4 C
05.03.2013 12:26 8,5 C 56 % 1013,8 hPa 0,0 l/m 5,8 km/h (2 Bft) S 180 0,2 C 7,8 C
05.03.2013 12:31 8,7 C 56 % 1013,6 hPa 0,0 l/m 7,2 km/h (2 Bft) SO 135 0,4 C 7,7 C
05.03.2013 12:36 8,8 C 56 % 1013,8 hPa 0,0 l/m 4,3 km/h (1 Bft) S-SO 157 0,5 C 8,8 C
05.03.2013 12:41 8,9 C 55 % 1013,6 hPa 0,0 l/m 9,4 km/h (2 Bft) O-SO 112 0,4 C 7,4 C
05.03.2013 12:46 9,1 C 54 % 1013,5 hPa 0,0 l/m 4,0 km/h (1 Bft) SO 135 0,3 C 9,1 C
05.03.2013 12:51 9,3 C 54 % 1013,1 hPa 0,0 l/m 11,9 km/h (2 Bft) O-SO 112 0,5 C 7,5 C
05.03.2013 12:56 9,3 C 53 % 1013,2 hPa 0,0 l/m 0,0 km/h (0 Bft) O-SO 112 0,2 C 9,3 C
05.03.2013 13:01 9,6 C 53 % 1013,1 hPa 0,0 l/m 11,5 km/h (2 Bft) O-SO 112 0,5 C 7,9 C
05.03.2013 13:06 9,8 C 52 % 1013,1 hPa 0,0 l/m 4,0 km/h (1 Bft) O-SO 112 0,4 C 9,8 C
05.03.2013 13:11 10,0 C 53 % 1012,8 hPa 0,0 l/m 6,5 km/h (2 Bft) SO 135 0,9 C 9,3 C
05.03.2013 13:16 10,4 C 53 % 1012,9 hPa 0,0 l/m 3,2 km/h (1 Bft) O-SO 112 1,2 C 10,4 C
05.03.2013 13:21 10,6 C 51 % 1012,9 hPa 0,0 l/m 2,9 km/h (1 Bft) O-SO 112 0,9 C 10,6 C
05.03.2013 13:26 10,8 C 50 % 1012,8 hPa 0,0 l/m 9,4 km/h (2 Bft) O 90 0,8 C 10,8 C
05.03.2013 13:31 10,9 C 50 % 1012,7 hPa 0,0 l/m 2,2 km/h (1 Bft) S-SO 157 0,9 C 10,9 C
05.03.2013 13:36 11,1 C 49 % 1012,6 hPa 0,0 l/m 6,1 km/h (2 Bft) S-SW 202 0,8 C 11,1 C
05.03.2013 13:41 11,3 C 48 % 1012,7 hPa 0,0 l/m 4,0 km/h (1 Bft) O-SO 112 0,7 C 11,3 C
05.03.2013 13:46 11,3 C 47 % 1012,6 hPa 0,0 l/m 2,9 km/h (1 Bft) S-SO 157 0,4 C 11,3 C
05.03.2013 13:51 11,3 C 46 % 1012,4 hPa 0,0 l/m 11,9 km/h (2 Bft) O-NO 67 0,1 C 11,3 C
05.03.2013 13:56 11,3 C 46 % 1012,5 hPa 0,0 l/m 3,6 km/h (1 Bft) SO 135 0,1 C 11,3 C
05.03.2013 14:01 11,4 C 46 % 1012,6 hPa 0,0 l/m 8,6 km/h (2 Bft) SO 135 0,2 C 11,4 C
05.03.2013 14:06 11,5 C 46 % 1012,5 hPa 0,0 l/m 13,3 km/h (3 Bft) SO 135 0,3 C 11,5 C
05.03.2013 14:11 11,6 C 45 % 1012,5 hPa 0,0 l/m 4,0 km/h (1 Bft) SO 135 0,1 C 11,6 C
05.03.2013 14:16 11,8 C 45 % 1012,4 hPa 0,0 l/m 10,8 km/h (2 Bft) SO 135 0,3 C 11,8 C
05.03.2013 14:21 11,9 C 45 % 1012,3 hPa 0,0 l/m 7,2 km/h (2 Bft) SO 135 0,4 C 11,9 C
05.03.2013 14:26 11,9 C 44 % 1012,2 hPa 0,0 l/m 9,0 km/h (2 Bft) SO 135 0,0 C 11,9 C
05.03.2013 14:31 12,0 C 44 % 1012,1 hPa 0,0 l/m 12,6 km/h (3 Bft) O-NO 67 0,1 C 12,0 C
05.03.2013 14:36 11,9 C 44 % 1012,2 hPa 0,0 l/m 13,7 km/h (3 Bft) SO 135 0,0 C 11,9 C
05.03.2013 14:41 12,1 C 44 % 1011,9 hPa 0,0 l/m 13,0 km/h (3 Bft) SO 135 0,2 C 12,1 C
05.03.2013 14:46 12,0 C 44 % 1012,0 hPa 0,0 l/m 8,6 km/h (2 Bft) O-SO 112 0,1 C 12,0 C
05.03.2013 14:51 12,1 C 45 % 1011,9 hPa 0,0 l/m 8,6 km/h (2 Bft) O-SO 112 0,5 C 12,1 C
05.03.2013 14:56 11,9 C 45 % 1011,9 hPa 0,0 l/m 9,4 km/h (2 Bft) SO 135 0,4 C 11,9 C
05.03.2013 15:01 11,9 C 44 % 1011,9 hPa 0,0 l/m 6,1 km/h (2 Bft) O-SO 112 0,0 C 11,9 C
05.03.2013 15:06 11,9 C 43 % 1012,0 hPa 0,0 l/m 5,4 km/h (1 Bft) S-SO 157 -0,3 C 11,9 C
05.03.2013 15:11 12,1 C 44 % 1011,6 hPa 0,0 l/m 2,5 km/h (1 Bft) SO 135 0,2 C 12,1 C
05.03.2013 15:16 12,2 C 43 % 1011,8 hPa 0,0 l/m 10,8 km/h (2 Bft) O-SO 112 -0,0 C 12,2 C
05.03.2013 15:21 12,3 C 42 % 1011,7 hPa 0,0 l/m 4,7 km/h (1 Bft) SO 135 -0,2 C 12,3 C
05.03.2013 15:26 12,4 C 42 % 1011,7 hPa 0,0 l/m 5,4 km/h (1 Bft) SO 135 -0,1 C 12,4 C
05.03.2013 15:31 12,4 C 42 % 1011,7 hPa 0,0 l/m 6,8 km/h (2 Bft) SO 135 -0,1 C 12,4 C
05.03.2013 15:36 12,4 C 43 % 1011,7 hPa 0,0 l/m 10,1 km/h (2 Bft) SO 135 0,2 C 12,4 C
05.03.2013 15:41 12,4 C 43 % 1011,7 hPa 0,0 l/m 9,0 km/h (2 Bft) SO 135 0,2 C 12,4 C
05.03.2013 15:46 12,4 C 43 % 1011,6 hPa 0,0 l/m 5,4 km/h (1 Bft) SO 135 0,2 C 12,4 C
05.03.2013 15:51 12,4 C 43 % 1011,7 hPa 0,0 l/m 3,2 km/h (1 Bft) S-SO 157 0,2 C 12,4 C
05.03.2013 15:56 12,4 C 43 % 1011,5 hPa 0,0 l/m 12,2 km/h (2 Bft) SO 135 0,2 C 12,4 C
05.03.2013 16:01 12,4 C 43 % 1011,4 hPa 0,0 l/m 3,6 km/h (1 Bft) SO 135 0,2 C 12,4 C
05.03.2013 16:06 12,4 C 43 % 1011,2 hPa 0,0 l/m 9,7 km/h (2 Bft) S-SO 157 0,2 C 12,4 C
05.03.2013 16:11 12,3 C 43 % 1011,2 hPa 0,0 l/m 5,8 km/h (2 Bft) SW 225 0,1 C 12,3 C
05.03.2013 16:16 12,2 C 43 % 1011,2 hPa 0,0 l/m 11,2 km/h (2 Bft) S 180 -0,0 C 12,2 C
05.03.2013 16:21 11,9 C 43 % 1011,2 hPa 0,0 l/m 5,0 km/h (1 Bft) SO 135 -0,3 C 11,9 C
05.03.2013 16:26 11,8 C 43 % 1011,0 hPa 0,0 l/m 5,8 km/h (2 Bft) SO 135 -0,4 C 11,8 C
05.03.2013 16:31 11,6 C 44 % 1011,1 hPa 0,0 l/m 11,2 km/h (2 Bft) SO 135 -0,2 C 11,6 C
05.03.2013 16:36 11,6 C 44 % 1011,0 hPa 0,0 l/m 6,8 km/h (2 Bft) S-SO 157 -0,2 C 11,6 C
05.03.2013 16:41 11,4 C 45 % 1010,9 hPa 0,0 l/m 5,4 km/h (1 Bft) S-SW 202 -0,1 C 11,4 C
05.03.2013 16:46 11,3 C 45 % 1011,0 hPa 0,0 l/m 14,4 km/h (3 Bft) S-SO 157 -0,2 C 11,3 C
05.03.2013 16:51 11,1 C 46 % 1011,0 hPa 0,0 l/m 5,8 km/h (2 Bft) SW 225 -0,1 C 11,1 C
05.03.2013 16:56 10,9 C 46 % 1011,0 hPa 0,0 l/m 5,8 km/h (2 Bft) S 180 -0,3 C 10,9 C
05.03.2013 17:01 10,8 C 47 % 1010,9 hPa 0,0 l/m 7,9 km/h (2 Bft) S-SW 202 -0,1 C 10,8 C
05.03.2013 17:06 10,6 C 48 % 1010,8 hPa 0,0 l/m 6,5 km/h (2 Bft) S-SO 157 0,1 C 10,6 C
05.03.2013 17:11 10,4 C 48 % 1011,0 hPa 0,0 l/m 5,0 km/h (1 Bft) S-SO 157 -0,1 C 10,4 C
05.03.2013 17:16 10,3 C 49 % 1011,0 hPa 0,0 l/m 6,1 km/h (2 Bft) S 180 0,1 C 10,3 C
05.03.2013 17:21 10,1 C 49 % 1011,0 hPa 0,0 l/m 10,4 km/h (2 Bft) SO 135 -0,1 C 10,1 C
05.03.2013 17:26 9,9 C 50 % 1011,0 hPa 0,0 l/m 9,7 km/h (2 Bft) S-SO 157 -0,0 C 8,6 C
05.03.2013 17:31 9,8 C 50 % 1011,0 hPa 0,0 l/m 2,5 km/h (1 Bft) S-SO 157 -0,1 C 9,8 C
05.03.2013 17:36 9,6 C 51 % 1010,9 hPa 0,0 l/m 3,6 km/h (1 Bft) S-SO 157 -0,0 C 9,6 C
05.03.2013 17:41 9,4 C 51 % 1011,0 hPa 0,0 l/m 6,5 km/h (2 Bft) S-SO 157 -0,2 C 8,7 C
05.03.2013 17:46 9,3 C 52 % 1010,9 hPa 0,0 l/m 8,6 km/h (2 Bft) SO 135 -0,0 C 8,1 C
05.03.2013 17:51 9,1 C 52 % 1010,9 hPa 0,0 l/m 4,3 km/h (1 Bft) S-SO 157 -0,2 C 9,1 C
05.03.2013 17:56 8,9 C 53 % 1011,0 hPa 0,0 l/m 5,4 km/h (1 Bft) S-SO 157 -0,1 C 8,4 C
05.03.2013 18:01 8,7 C 54 % 1010,9 hPa 0,0 l/m 5,8 km/h (2 Bft) SO 135 -0,1 C 8,0 C
05.03.2013 18:06 8,5 C 54 % 1010,8 hPa 0,0 l/m 5,4 km/h (1 Bft) SO 135 -0,3 C 7,9 C
05.03.2013 18:11 8,3 C 55 % 1010,8 hPa 0,0 l/m 4,0 km/h (1 Bft) S-SO 157 -0,2 C 8,3 C
05.03.2013 18:16 8,1 C 56 % 1011,0 hPa 0,0 l/m 2,2 km/h (1 Bft) S-SO 157 -0,1 C 8,1 C
05.03.2013 18:21 7,9 C 56 % 1010,9 hPa 0,0 l/m 5,0 km/h (1 Bft) SO 135 -0,3 C 7,4 C
05.03.2013 18:26 7,8 C 57 % 1010,9 hPa 0,0 l/m 5,8 km/h (2 Bft) SO 135 -0,2 C 7,0 C
05.03.2013 18:31 7,6 C 57 % 1010,8 hPa 0,0 l/m 13,0 km/h (3 Bft) S-SO 157 -0,4 C 5,2 C
05.03.2013 18:36 7,6 C 58 % 1011,0 hPa 0,0 l/m 5,4 km/h (1 Bft) S-SO 157 -0,1 C 6,9 C
05.03.2013 18:41 7,5 C 58 % 1010,9 hPa 0,0 l/m 4,3 km/h (1 Bft) S-SO 157 -0,2 C 7,5 C
05.03.2013 18:46 7,5 C 59 % 1010,9 hPa 0,0 l/m 6,1 km/h (2 Bft) SO 135 0,0 C 6,6 C
05.03.2013 18:51 7,3 C 59 % 1010,8 hPa 0,0 l/m 2,9 km/h (1 Bft) S-SO 157 -0,2 C 7,3 C
05.03.2013 18:56 7,2 C 59 % 1010,7 hPa 0,0 l/m 3,6 km/h (1 Bft) SO 135 -0,3 C 7,2 C
05.03.2013 19:01 7,2 C 60 % 1010,7 hPa 0,0 l/m 6,1 km/h (2 Bft) S-SO 157 -0,0 C 6,2 C
05.03.2013 19:06 7,0 C 60 % 1010,7 hPa 0,0 l/m 5,4 km/h (1 Bft) SO 135 -0,2 C 6,2 C
05.03.2013 19:11 6,8 C 60 % 1010,7 hPa 0,0 l/m 4,3 km/h (1 Bft) O-SO 112 -0,4 C 6,8 C
05.03.2013 19:16 6,6 C 61 % 1010,5 hPa 0,0 l/m 2,5 km/h (1 Bft) O-SO 112 -0,4 C 6,6 C
05.03.2013 19:21 6,3 C 62 % 1010,5 hPa 0,0 l/m 3,2 km/h (1 Bft) SO 135 -0,4 C 6,3 C
05.03.2013 19:26 6,1 C 63 % 1010,6 hPa 0,0 l/m 3,6 km/h (1 Bft) SO 135 -0,4 C 6,1 C
05.03.2013 19:31 5,9 C 64 % 1010,6 hPa 0,0 l/m 2,2 km/h (1 Bft) O-SO 112 -0,4 C 5,9 C
05.03.2013 19:36 5,8 C 64 % 1010,5 hPa 0,0 l/m 2,2 km/h (1 Bft) SO 135 -0,5 C 5,8 C
05.03.2013 19:41 5,6 C 65 % 1010,6 hPa 0,0 l/m 4,0 km/h (1 Bft) SO 135 -0,4 C 5,6 C
05.03.2013 19:46 5,4 C 66 % 1010,5 hPa 0,0 l/m 0,0 km/h (0 Bft) O-SO 112 -0,4 C 5,4 C
05.03.2013 19:51 5,3 C 67 % 1010,4 hPa 0,0 l/m 6,1 km/h (2 Bft) O-SO 112 -0,3 C 4,0 C
05.03.2013 19:56 5,1 C 68 % 1010,4 hPa 0,0 l/m 5,0 km/h (1 Bft) SO 135 -0,3 C 4,2 C
05.03.2013 20:01 5,0 C 68 % 1010,4 hPa 0,0 l/m 3,2 km/h (1 Bft) O-SO 112 -0,4 C 5,0 C
05.03.2013 20:06 4,9 C 69 % 1010,3 hPa 0,0 l/m 3,2 km/h (1 Bft) O 90 -0,3 C 4,9 C
05.03.2013 20:11 4,8 C 69 % 1010,4 hPa 0,0 l/m 2,5 km/h (1 Bft) O-SO 112 -0,4 C 4,8 C
05.03.2013 20:16 4,6 C 69 % 1010,3 hPa 0,0 l/m 5,8 km/h (2 Bft) SO 135 -0,6 C 3,3 C
05.03.2013 20:21 4,5 C 70 % 1010,4 hPa 0,0 l/m 5,4 km/h (1 Bft) S-SO 157 -0,5 C 3,4 C
05.03.2013 20:26 4,4 C 70 % 1010,3 hPa 0,0 l/m 5,4 km/h (1 Bft) SO 135 -0,6 C 3,2 C
05.03.2013 20:31 4,4 C 70 % 1010,3 hPa 0,0 l/m 3,2 km/h (1 Bft) S-SO 157 -0,6 C 4,4 C
05.03.2013 20:36 4,3 C 70 % 1010,2 hPa 0,0 l/m 5,0 km/h (1 Bft) S-SO 157 -0,7 C 3,3 C
05.03.2013 20:41 4,2 C 70 % 1010,3 hPa 0,0 l/m 4,3 km/h (1 Bft) SO 135 -0,8 C 4,2 C
05.03.2013 20:46 4,1 C 70 % 1010,3 hPa 0,0 l/m 2,9 km/h (1 Bft) O-SO 112 -0,9 C 4,1 C
05.03.2013 20:51 3,9 C 71 % 1010,3 hPa 0,0 l/m 3,6 km/h (1 Bft) SO 135 -0,9 C 3,9 C
05.03.2013 20:56 3,8 C 71 % 1010,2 hPa 0,0 l/m 2,2 km/h (1 Bft) SO 135 -1,0 C 3,8 C
05.03.2013 21:01 3,6 C 71 % 1010,0 hPa 0,0 l/m 2,2 km/h (1 Bft) S-SO 157 -1,2 C 3,6 C
05.03.2013 21:06 3,4 C 71 % 1010,0 hPa 0,0 l/m 0,0 km/h (0 Bft) SO 135 -1,3 C 3,4 C
05.03.2013 21:11 3,3 C 72 % 1009,9 hPa 0,0 l/m 1,8 km/h (1 Bft) SO 135 -1,3 C 3,3 C
05.03.2013 21:16 3,1 C 73 % 1009,9 hPa 0,0 l/m 0,0 km/h (0 Bft) O-SO 112 -1,3 C 3,1 C
05.03.2013 21:21 2,9 C 73 % 1010,0 hPa 0,0 l/m 1,4 km/h (1 Bft) O-SO 112 -1,5 C 2,9 C
05.03.2013 21:26 2,8 C 74 % 1010,0 hPa 0,0 l/m 2,2 km/h (1 Bft) O-SO 112 -1,4 C 2,8 C
05.03.2013 21:31 2,6 C 74 % 1010,0 hPa 0,0 l/m 1,8 km/h (1 Bft) O-SO 112 -1,6 C 2,6 C
05.03.2013 21:36 2,5 C 74 % 1010,0 hPa 0,0 l/m 0,0 km/h (0 Bft) O-SO 112 -1,7 C 2,5 C
05.03.2013 21:41 2,4 C 75 % 1010,0 hPa 0,0 l/m 2,5 km/h (1 Bft) O 90 -1,6 C 2,4 C
05.03.2013 21:46 2,4 C 76 % 1009,9 hPa 0,0 l/m 1,8 km/h (1 Bft) O 90 -1,4 C 2,4 C
05.03.2013 21:51 2,5 C 76 % 1009,8 hPa 0,0 l/m 3,2 km/h (1 Bft) O 90 -1,3 C 2,5 C
05.03.2013 21:56 2,6 C 76 % 1009,8 hPa 0,0 l/m 3,2 km/h (1 Bft) O-SO 112 -1,2 C 2,6 C
05.03.2013 22:01 2,6 C 77 % 1009,8 hPa 0,0 l/m 4,7 km/h (1 Bft) O-SO 112 -1,0 C 1,5 C
05.03.2013 22:06 2,7 C 77 % 1009,7 hPa 0,0 l/m 2,2 km/h (1 Bft) O 90 -0,9 C 2,7 C
05.03.2013 22:11 2,7 C 77 % 1009,8 hPa 0,0 l/m 5,0 km/h (1 Bft) O 90 -0,9 C 1,5 C
05.03.2013 22:16 2,8 C 77 % 1009,6 hPa 0,0 l/m 5,4 km/h (1 Bft) O 90 -0,8 C 1,4 C
05.03.2013 22:21 2,9 C 77 % 1009,6 hPa 0,0 l/m 2,9 km/h (1 Bft) O-SO 112 -0,7 C 2,9 C
05.03.2013 22:26 2,9 C 76 % 1009,6 hPa 0,0 l/m 2,5 km/h (1 Bft) O 90 -0,9 C 2,9 C
05.03.2013 22:31 2,8 C 76 % 1009,7 hPa 0,0 l/m 3,6 km/h (1 Bft) O 90 -1,0 C 2,8 C
05.03.2013 22:36 2,7 C 77 % 1009,5 hPa 0,0 l/m 0,0 km/h (0 Bft) O-NO 67 -0,9 C 2,7 C
05.03.2013 22:41 2,6 C 77 % 1009,5 hPa 0,0 l/m 3,6 km/h (1 Bft) O-SO 112 -1,0 C 2,6 C
05.03.2013 22:46 2,6 C 78 % 1009,4 hPa 0,0 l/m 6,1 km/h (2 Bft) O-SO 112 -0,8 C 0,9 C
05.03.2013 22:51 2,6 C 78 % 1009,5 hPa 0,0 l/m 3,2 km/h (1 Bft) O-SO 112 -0,8 C 2,6 C
05.03.2013 22:56 2,6 C 78 % 1009,3 hPa 0,0 l/m 2,5 km/h (1 Bft) O 90 -0,8 C 2,6 C
05.03.2013 23:01 2,4 C 78 % 1009,4 hPa 0,0 l/m 3,2 km/h (1 Bft) O-SO 112 -1,0 C 2,4 C
05.03.2013 23:06 2,4 C 78 % 1009,3 hPa 0,0 l/m 0,0 km/h (0 Bft) O-SO 112 -1,0 C 2,4 C
05.03.2013 23:11 2,3 C 78 % 1009,4 hPa 0,0 l/m 0,0 km/h (0 Bft) O 90 -1,1 C 2,3 C
05.03.2013 23:16 2,2 C 78 % 1009,2 hPa 0,0 l/m 1,4 km/h (1 Bft) O-SO 112 -1,2 C 2,2 C
05.03.2013 23:21 2,1 C 78 % 1009,4 hPa 0,0 l/m 3,6 km/h (1 Bft) O-SO 112 -1,3 C 2,1 C
05.03.2013 23:26 1,9 C 79 % 1009,3 hPa 0,0 l/m 4,0 km/h (1 Bft) O-SO 112 -1,3 C 1,9 C
05.03.2013 23:31 1,9 C 79 % 1009,3 hPa 0,0 l/m 4,0 km/h (1 Bft) O-NO 67 -1,3 C 1,9 C
05.03.2013 23:36 1,8 C 79 % 1009,0 hPa 0,0 l/m 4,0 km/h (1 Bft) O 90 -1,4 C 1,8 C
05.03.2013 23:41 1,8 C 80 % 1009,1 hPa 0,0 l/m 2,9 km/h (1 Bft) O-SO 112 -1,3 C 1,8 C
05.03.2013 23:46 1,7 C 80 % 1009,2 hPa 0,0 l/m 4,7 km/h (1 Bft) O-SO 112 -1,4 C 0,5 C
05.03.2013 23:51 1,6 C 80 % 1009,2 hPa 0,0 l/m 3,2 km/h (1 Bft) O-SO 112 -1,5 C 1,6 C
05.03.2013 23:56 1,6 C 80 % 1009,2 hPa 0,0 l/m 1,8 km/h (1 Bft) O-SO 112 -1,5 C 1,6 C
_ Min-Zeit 05:26 15:21 23:36 - 00:56 - - 05:06 05:46
Minimum _ -1,4 C 42 % 1009,0 hPa - 0,0 km/h (0 Bft) - - -3,5 C -5,4 C
_ Max-Zeit 15:26 05:26 00:01 00:01 16:46 - - 13:16 15:26
Maximum _ 12,4 C 86 % 1019,7 hPa 0,0 l/m 14,4 km/h
S-SO (3 Bft)
- - 1,2 C 12,4 C
Durchschnitt _ 4,2 C 69 % 1013,9 hPa #0,0 l/m 4,9 km/h (1 Bft) SO - -1,3 C 3,6 C
(c) by David Heller